createdAt,value
2022-12-04T00:01:15.612Z,71.73
2022-12-04T00:04:00.494Z,71.76
2022-12-04T00:06:43.467Z,71.65
2022-12-04T00:09:26.373Z,71.70
2022-12-04T00:12:09.405Z,71.72
2022-12-04T00:15:24.025Z,71.59
2022-12-04T00:17:56.528Z,71.63
2022-12-04T00:20:40.339Z,71.68
2022-12-04T00:23:23.268Z,71.78
2022-12-04T00:26:07.799Z,71.50
2022-12-04T00:28:50.804Z,71.74
2022-12-04T00:31:35.368Z,71.78
2022-12-04T00:34:18.598Z,71.44
2022-12-04T00:37:01.443Z,71.33
2022-12-04T00:39:44.649Z,71.39
2022-12-04T00:42:27.553Z,71.22
2022-12-04T00:45:11.020Z,70.95
2022-12-04T00:47:55.312Z,70.84
2022-12-04T00:50:38.801Z,70.98
2022-12-04T00:53:22.371Z,71.23
2022-12-04T00:56:06.786Z,70.89
2022-12-04T00:58:52.249Z,71.26
2022-12-04T01:01:35.163Z,71.57
2022-12-04T01:04:19.431Z,71.62
2022-12-04T01:07:05.135Z,71.57
2022-12-04T01:09:48.374Z,71.79
2022-12-04T01:12:31.330Z,71.81
2022-12-04T01:15:14.355Z,71.50
2022-12-04T01:17:57.417Z,71.32
2022-12-04T01:20:42.051Z,71.56
2022-12-04T01:23:24.929Z,71.76
2022-12-04T01:26:08.117Z,71.21
2022-12-04T01:28:50.989Z,71.24
2022-12-04T01:31:34.414Z,71.04
2022-12-04T01:34:17.293Z,71.38
2022-12-04T01:37:01.494Z,71.46
2022-12-04T01:39:44.357Z,71.44
2022-12-04T01:42:28.119Z,71.60
2022-12-04T01:45:35.639Z,71.39
2022-12-04T01:48:27.559Z,71.35
2022-12-04T01:51:17.829Z,71.25
2022-12-04T01:54:06.069Z,71.22
2022-12-04T01:56:53.605Z,71.31
2022-12-04T01:59:41.120Z,71.08
2022-12-04T02:02:28.550Z,71.22
2022-12-04T02:05:14.769Z,71.08
2022-12-04T02:08:01.423Z,71.06
2022-12-04T02:10:56.669Z,71.40
2022-12-04T02:13:46.971Z,71.19
2022-12-04T02:16:37.875Z,70.93
2022-12-04T02:19:43.906Z,70.90
2022-12-04T02:22:42.676Z,70.81
2022-12-04T02:25:31.106Z,70.77
2022-12-04T02:28:24.381Z,70.79
2022-12-04T02:31:13.399Z,70.89
2022-12-04T02:34:02.566Z,71.01
2022-12-04T02:36:51.933Z,71.13
2022-12-04T02:39:41.275Z,71.01
2022-12-04T02:42:34.046Z,70.93
2022-12-04T02:45:22.760Z,70.94
2022-12-04T02:48:08.718Z,71.23
2022-12-04T02:50:57.190Z,71.10
2022-12-04T02:53:45.936Z,71.26
2022-12-04T02:56:33.341Z,71.36
2022-12-04T02:59:20.266Z,71.30
2022-12-04T03:02:10.546Z,71.16
2022-12-04T03:04:57.376Z,71.31
2022-12-04T03:07:45.975Z,71.43
2022-12-04T03:10:33.885Z,71.24
2022-12-04T03:13:21.396Z,70.93
2022-12-04T03:16:11.432Z,71.55
2022-12-04T03:19:00.016Z,71.01
2022-12-04T03:21:48.970Z,70.90
2022-12-04T03:24:35.501Z,71.08
2022-12-04T03:27:27.144Z,71.44
2022-12-04T03:30:12.618Z,71.35
2022-12-04T03:33:02.412Z,71.54
2022-12-04T03:35:50.612Z,71.20
2022-12-04T03:38:38.906Z,71.40
2022-12-04T03:41:28.174Z,71.51
2022-12-04T03:44:17.232Z,71.52
2022-12-04T03:47:05.230Z,71.57
2022-12-04T03:49:55.016Z,71.35
2022-12-04T03:52:49.669Z,71.43
2022-12-04T03:55:39.937Z,71.30
2022-12-04T03:58:28.273Z,71.53
2022-12-04T04:01:14.389Z,71.35
2022-12-04T04:04:01.020Z,71.04
2022-12-04T04:06:49.967Z,70.89
2022-12-04T04:09:38.313Z,71.03
2022-12-04T04:12:23.584Z,71.07
2022-12-04T04:15:28.547Z,71.05
2022-12-04T04:18:28.732Z,70.86
2022-12-04T04:21:31.682Z,70.46
2022-12-04T04:24:28.972Z,70.61
2022-12-04T04:27:13.591Z,70.31
2022-12-04T04:29:56.535Z,69.81
2022-12-04T04:32:43.902Z,69.82
2022-12-04T04:35:38.185Z,69.58
2022-12-04T04:38:27.263Z,69.78
2022-12-04T04:41:17.267Z,69.71
2022-12-04T04:44:10.753Z,69.54
2022-12-04T04:46:58.668Z,69.70
2022-12-04T04:49:43.173Z,69.53
2022-12-04T04:52:26.528Z,69.34
2022-12-04T04:55:10.534Z,69.27
2022-12-04T04:57:53.374Z,69.33
2022-12-04T05:00:38.451Z,69.00
2022-12-04T05:03:21.308Z,68.83
2022-12-04T05:06:04.660Z,68.88
2022-12-04T05:08:49.283Z,68.93
2022-12-04T05:11:31.962Z,68.66
2022-12-04T05:14:14.810Z,68.69
2022-12-04T05:17:01.844Z,68.49
2022-12-04T05:19:57.885Z,68.13
2022-12-04T05:22:40.940Z,68.42
2022-12-04T05:25:23.834Z,68.07
2022-12-04T05:28:06.909Z,67.91
2022-12-04T05:30:56.103Z,67.87
2022-12-04T05:33:40.396Z,68.03
2022-12-04T05:36:23.261Z,67.31
2022-12-04T05:39:06.167Z,67.38
2022-12-04T05:41:49.050Z,67.25
2022-12-04T05:44:31.908Z,67.03
2022-12-04T05:47:14.749Z,66.77
2022-12-04T05:49:59.150Z,66.75
2022-12-04T05:52:42.041Z,66.96
2022-12-04T05:55:24.851Z,66.90
2022-12-04T05:58:07.786Z,67.00
2022-12-04T06:00:50.681Z,67.08
2022-12-04T06:03:33.592Z,67.21
2022-12-04T06:06:22.284Z,67.13
2022-12-04T06:09:06.950Z,67.39
2022-12-04T06:11:49.781Z,67.21
2022-12-04T06:14:39.157Z,67.14
2022-12-04T06:17:22.556Z,67.20
2022-12-04T06:20:11.230Z,67.18
2022-12-04T06:22:56.059Z,66.92
2022-12-04T06:25:38.941Z,66.63
2022-12-04T06:28:21.808Z,67.02
2022-12-04T06:31:06.215Z,67.21
2022-12-04T06:33:49.521Z,67.14
2022-12-04T06:36:32.612Z,67.01
2022-12-04T06:39:18.987Z,67.34
2022-12-04T06:42:02.028Z,67.25
2022-12-04T06:44:44.951Z,67.42
2022-12-04T06:47:27.798Z,67.39
2022-12-04T06:50:11.229Z,67.59
2022-12-04T06:52:54.057Z,67.37
2022-12-04T06:55:38.268Z,67.53
2022-12-04T06:58:21.105Z,67.17
2022-12-04T07:01:08.209Z,67.32
2022-12-04T07:03:52.036Z,67.24
2022-12-04T07:06:36.569Z,67.21
2022-12-04T07:09:19.820Z,67.43
2022-12-04T07:12:04.010Z,67.18
2022-12-04T07:14:46.862Z,67.18
2022-12-04T07:17:29.755Z,67.10
2022-12-04T07:20:13.571Z,66.93
2022-12-04T07:22:56.548Z,67.10
2022-12-04T07:25:40.971Z,67.65
2022-12-04T07:28:25.169Z,67.85
2022-12-04T07:31:09.389Z,67.63
2022-12-04T07:33:53.957Z,67.74
2022-12-04T07:36:36.890Z,67.98
2022-12-04T07:39:19.743Z,67.75
2022-12-04T07:42:02.692Z,67.83
2022-12-04T07:44:48.622Z,67.95
2022-12-04T07:47:31.457Z,67.76
2022-12-04T07:50:14.311Z,67.78
2022-12-04T07:52:57.141Z,67.71
2022-12-04T07:55:40.150Z,67.44
2022-12-04T07:58:22.952Z,67.34
2022-12-04T08:01:09.122Z,67.17
2022-12-04T08:03:53.501Z,67.31
2022-12-04T08:06:36.442Z,67.16
2022-12-04T08:09:19.285Z,67.21
2022-12-04T08:12:02.082Z,66.95
2022-12-04T08:14:44.969Z,66.73
2022-12-04T08:17:29.431Z,66.70
2022-12-04T08:20:13.205Z,66.71
2022-12-04T08:22:56.067Z,66.45
2022-12-04T08:25:40.231Z,66.39
2022-12-04T08:28:23.070Z,66.33
2022-12-04T08:31:07.472Z,65.70
2022-12-04T08:33:53.434Z,65.75
2022-12-04T08:36:36.609Z,65.26
2022-12-04T08:39:19.552Z,65.14
2022-12-04T08:42:02.389Z,65.03
2022-12-04T08:44:45.232Z,64.85
2022-12-04T08:47:28.044Z,64.79
2022-12-04T08:50:12.848Z,64.56
2022-12-04T08:52:55.707Z,64.53
2022-12-04T08:55:38.580Z,64.41
2022-12-04T08:58:21.431Z,64.17
2022-12-04T09:01:08.403Z,64.09
2022-12-04T09:03:51.289Z,64.01
2022-12-04T09:06:35.484Z,63.95
2022-12-04T09:09:18.342Z,64.02
2022-12-04T09:12:01.178Z,63.77
2022-12-04T09:14:43.993Z,63.78
2022-12-04T09:17:26.859Z,63.44
2022-12-04T09:20:10.803Z,62.87
2022-12-04T09:23:04.145Z,62.72
2022-12-04T09:25:47.766Z,62.74
2022-12-04T09:28:30.622Z,62.59
2022-12-04T09:31:13.810Z,62.54
2022-12-04T09:33:59.050Z,62.45
2022-12-04T09:36:41.890Z,62.30
2022-12-04T09:39:26.314Z,61.64
2022-12-04T09:42:24.931Z,61.42
2022-12-04T09:45:13.018Z,61.47
2022-12-04T09:47:59.043Z,61.65
2022-12-04T09:50:44.475Z,61.39
2022-12-04T09:53:30.930Z,61.34
2022-12-04T09:56:19.824Z,60.87
2022-12-04T09:59:12.544Z,58.95
2022-12-04T10:01:59.855Z,60.54
2022-12-04T10:04:42.754Z,60.61
2022-12-04T10:07:29.967Z,60.53
2022-12-04T10:10:20.442Z,59.84
2022-12-04T10:13:16.533Z,60.47
2022-12-04T10:16:11.058Z,59.79
2022-12-04T10:19:04.285Z,59.61
2022-12-04T10:22:01.258Z,59.58
2022-12-04T10:24:49.119Z,59.89
2022-12-04T10:27:35.618Z,59.96
2022-12-04T10:30:23.823Z,59.86
2022-12-04T10:33:17.758Z,59.42
2022-12-04T10:36:02.488Z,59.57
2022-12-04T10:38:47.307Z,58.79
2022-12-04T10:41:37.499Z,59.88
2022-12-04T10:44:21.871Z,60.16
2022-12-04T10:47:06.499Z,60.25
2022-12-04T10:49:49.278Z,59.57
2022-12-04T10:52:32.185Z,60.04
2022-12-04T10:55:15.878Z,60.17
2022-12-04T10:57:58.863Z,60.31
2022-12-04T11:00:41.752Z,60.42
2022-12-04T11:03:29.414Z,60.19
2022-12-04T11:06:15.118Z,60.62
2022-12-04T11:08:59.505Z,60.43
2022-12-04T11:11:42.413Z,59.71
2022-12-04T11:14:25.526Z,59.43
2022-12-04T11:17:08.548Z,59.66
2022-12-04T11:20:00.756Z,59.62
2022-12-04T11:22:52.353Z,60.17
2022-12-04T11:25:39.501Z,59.46
2022-12-04T11:28:41.335Z,59.48
2022-12-04T11:31:25.576Z,59.30
2022-12-04T11:34:10.873Z,59.10
2022-12-04T11:36:57.591Z,58.91
2022-12-04T11:39:42.303Z,58.88
2022-12-04T11:42:25.548Z,57.83
2022-12-04T11:45:21.926Z,58.42
2022-12-04T11:48:14.127Z,58.59
2022-12-04T11:51:08.533Z,58.32
2022-12-04T11:54:00.245Z,58.35
2022-12-04T11:56:48.189Z,58.20
2022-12-04T11:59:49.725Z,57.34
2022-12-04T12:02:45.389Z,58.33
2022-12-04T12:06:00.280Z,58.19
2022-12-04T12:08:59.443Z,58.28
2022-12-04T12:11:50.586Z,58.25
2022-12-04T12:14:41.081Z,58.46
2022-12-04T12:17:33.377Z,58.16
2022-12-04T12:20:22.566Z,57.92
2022-12-04T12:23:22.393Z,57.93
2022-12-04T12:26:12.383Z,57.99
2022-12-04T12:29:22.651Z,57.59
2022-12-04T12:32:25.978Z,57.71
2022-12-04T12:35:21.263Z,57.77
2022-12-04T12:38:07.787Z,58.09
2022-12-04T12:40:56.651Z,58.16
2022-12-04T12:43:42.192Z,58.07
2022-12-04T12:46:32.404Z,57.83
2022-12-04T12:49:21.242Z,58.07
2022-12-04T12:52:08.416Z,58.17
2022-12-04T12:54:57.291Z,58.22
2022-12-04T12:57:44.062Z,58.28
2022-12-04T13:00:31.425Z,58.22
2022-12-04T13:03:27.140Z,57.84
2022-12-04T13:06:15.672Z,58.25
2022-12-04T13:09:07.360Z,58.28
2022-12-04T13:11:52.631Z,58.41
2022-12-04T13:14:35.636Z,58.54
2022-12-04T13:17:26.599Z,58.33
2022-12-04T13:20:18.173Z,58.77
2022-12-04T13:23:16.096Z,58.87
2022-12-04T13:26:07.755Z,59.14
2022-12-04T13:28:58.469Z,59.37
2022-12-04T13:31:53.132Z,59.30
2022-12-04T13:34:50.144Z,59.44
2022-12-04T13:37:49.481Z,59.66
2022-12-04T13:40:36.873Z,59.71
2022-12-04T13:43:26.773Z,59.81
2022-12-04T13:46:26.806Z,59.89
2022-12-04T13:49:25.126Z,59.93
2022-12-04T13:52:23.509Z,60.21
2022-12-04T13:55:23.868Z,60.18
2022-12-04T13:58:27.351Z,60.03
2022-12-04T14:01:26.387Z,59.93
2022-12-04T14:04:23.571Z,60.18
2022-12-04T14:07:06.607Z,60.09
2022-12-04T14:09:54.389Z,60.31
2022-12-04T14:12:40.729Z,60.24
2022-12-04T14:15:26.280Z,60.63
2022-12-04T14:18:21.928Z,60.25
2022-12-04T14:21:06.772Z,60.42
2022-12-04T14:23:51.122Z,60.52
2022-12-04T14:27:03.569Z,60.78
2022-12-04T14:29:47.242Z,60.81
2022-12-04T14:32:34.693Z,61.28
2022-12-04T14:35:21.280Z,61.24
2022-12-04T14:38:06.871Z,61.31
2022-12-04T14:40:52.508Z,61.35
2022-12-04T14:43:41.072Z,61.21
2022-12-04T14:46:29.261Z,61.26
2022-12-04T14:49:24.699Z,61.33
2022-12-04T14:52:16.072Z,61.54
2022-12-04T14:55:08.076Z,61.28
2022-12-04T14:57:56.546Z,61.46
2022-12-04T15:00:51.298Z,61.81
2022-12-04T15:03:37.978Z,61.32
2022-12-04T15:06:25.465Z,61.72
2022-12-04T15:09:36.035Z,62.26
2022-12-04T15:12:36.440Z,61.60
2022-12-04T15:15:25.128Z,61.62
2022-12-04T15:18:15.804Z,61.54
2022-12-04T15:21:01.453Z,61.71
2022-12-04T15:23:44.737Z,61.58
2022-12-04T15:26:28.272Z,61.76
2022-12-04T15:29:18.802Z,61.68
2022-12-04T15:32:05.488Z,61.55
2022-12-04T15:34:54.417Z,61.68
2022-12-04T15:37:37.868Z,61.42
2022-12-04T15:40:23.154Z,61.31
2022-12-04T15:43:17.304Z,61.41
2022-12-04T15:46:00.689Z,61.26
2022-12-04T15:48:47.719Z,61.31
2022-12-04T15:51:32.564Z,61.68
2022-12-04T15:54:22.280Z,62.24
2022-12-04T15:57:07.771Z,61.66
2022-12-04T15:59:51.823Z,61.77
2022-12-04T16:02:40.623Z,62.01
2022-12-04T16:05:35.481Z,61.89
2022-12-04T16:08:26.828Z,62.30
2022-12-04T16:11:28.514Z,61.95
2022-12-04T16:14:19.177Z,61.86
2022-12-04T16:17:06.287Z,61.90
2022-12-04T16:19:49.569Z,62.21
2022-12-04T16:22:32.562Z,62.28
2022-12-04T16:25:17.891Z,62.34
2022-12-04T16:28:01.697Z,61.98
2022-12-04T16:30:44.637Z,61.99
2022-12-04T16:33:27.511Z,61.73
2022-12-04T16:36:11.649Z,61.95
2022-12-04T16:38:54.489Z,61.98
2022-12-04T16:41:38.769Z,62.18
2022-12-04T16:44:21.631Z,61.97
2022-12-04T16:47:04.630Z,62.09
2022-12-04T16:49:50.259Z,61.89
2022-12-04T16:52:33.123Z,61.92
2022-12-04T16:55:20.560Z,61.74
2022-12-04T16:58:05.418Z,61.77
2022-12-04T17:00:54.433Z,61.93
2022-12-04T17:03:37.382Z,61.77
2022-12-04T17:06:20.390Z,61.62
2022-12-04T17:09:03.244Z,61.88
2022-12-04T17:11:46.667Z,62.06
2022-12-04T17:14:30.908Z,62.16
2022-12-04T17:17:13.771Z,62.14
2022-12-04T17:19:56.613Z,62.14
2022-12-04T17:22:39.554Z,62.50
2022-12-04T17:25:22.478Z,62.96
2022-12-04T17:28:05.607Z,62.92
2022-12-04T17:30:49.835Z,62.86
2022-12-04T17:33:33.302Z,62.55
2022-12-04T17:36:18.970Z,62.61
2022-12-04T17:39:02.594Z,62.43
2022-12-04T17:41:45.473Z,62.43
2022-12-04T17:44:28.426Z,62.87
2022-12-04T17:47:13.295Z,63.30
2022-12-04T17:49:56.158Z,63.12
2022-12-04T17:52:39.060Z,63.25
2022-12-04T17:55:21.928Z,63.38
2022-12-04T17:58:04.798Z,63.58
2022-12-04T18:00:47.714Z,63.21
2022-12-04T18:03:32.112Z,63.17
2022-12-04T18:06:17.753Z,63.26
2022-12-04T18:09:00.659Z,63.21
2022-12-04T18:11:45.896Z,63.20
2022-12-04T18:14:29.863Z,63.32
2022-12-04T18:17:12.703Z,63.13
2022-12-04T18:20:02.673Z,63.36
2022-12-04T18:22:47.324Z,63.36
2022-12-04T18:25:30.194Z,63.08
2022-12-04T18:28:13.052Z,62.95
2022-12-04T18:30:55.953Z,62.94
2022-12-04T18:33:40.687Z,62.93
2022-12-04T18:36:26.162Z,63.10
2022-12-04T18:39:09.841Z,63.21
2022-12-04T18:41:55.978Z,63.05
2022-12-04T18:44:38.902Z,63.25
2022-12-04T18:47:21.733Z,63.18
2022-12-04T18:50:04.746Z,63.73
2022-12-04T18:52:54.955Z,63.70
2022-12-04T18:55:40.722Z,63.93
2022-12-04T18:58:23.874Z,63.68
2022-12-04T19:01:07.683Z,63.68
2022-12-04T19:03:50.607Z,64.00
2022-12-04T19:06:35.609Z,64.04
2022-12-04T19:09:35.393Z,64.02
2022-12-04T19:12:25.235Z,64.09
2022-12-04T19:15:08.794Z,64.47
2022-12-04T19:17:51.671Z,64.51
2022-12-04T19:20:34.526Z,64.45
2022-12-04T19:23:17.426Z,64.47
2022-12-04T19:26:02.546Z,64.43
2022-12-04T19:28:45.435Z,64.37
2022-12-04T19:31:30.014Z,64.44
2022-12-04T19:34:12.905Z,64.45
2022-12-04T19:36:56.037Z,64.54
2022-12-04T19:39:39.077Z,64.53
2022-12-04T19:42:23.358Z,64.61
2022-12-04T19:45:06.929Z,65.00
2022-12-04T19:47:49.789Z,64.98
2022-12-04T19:50:33.610Z,64.96
2022-12-04T19:53:16.693Z,64.93
2022-12-04T19:56:03.586Z,65.02
2022-12-04T19:58:48.441Z,64.81
2022-12-04T20:01:32.386Z,65.02
2022-12-04T20:04:15.627Z,65.12
2022-12-04T20:06:58.755Z,64.96
2022-12-04T20:09:42.526Z,65.23
2022-12-04T20:12:27.859Z,65.30
2022-12-04T20:15:12.175Z,65.60
2022-12-04T20:17:55.114Z,65.58
2022-12-04T20:20:37.988Z,65.42
2022-12-04T20:23:20.844Z,65.91
2022-12-04T20:26:05.067Z,65.94
2022-12-04T20:28:48.244Z,65.72
2022-12-04T20:31:34.946Z,66.07
2022-12-04T20:34:19.738Z,66.48
2022-12-04T20:37:02.581Z,66.18
2022-12-04T20:39:45.555Z,66.44
2022-12-04T20:42:33.278Z,66.24
2022-12-04T20:45:16.617Z,66.25
2022-12-04T20:48:00.820Z,66.28
2022-12-04T20:50:45.989Z,66.87
2022-12-04T20:53:30.245Z,66.88
2022-12-04T20:56:13.116Z,67.03
2022-12-04T20:58:57.545Z,66.96
2022-12-04T21:01:40.833Z,67.31
2022-12-04T21:04:25.254Z,66.98
2022-12-04T21:07:08.388Z,66.66
2022-12-04T21:09:51.301Z,66.50
2022-12-04T21:12:52.259Z,66.62
2022-12-04T21:15:54.118Z,66.35
2022-12-04T21:18:37.840Z,66.43
2022-12-04T21:21:22.191Z,66.51
2022-12-04T21:24:06.335Z,66.48
2022-12-04T21:26:49.528Z,66.58
2022-12-04T21:29:32.581Z,66.50
2022-12-04T21:32:15.501Z,66.46
2022-12-04T21:34:58.428Z,66.56
2022-12-04T21:37:42.656Z,66.52
2022-12-04T21:40:25.485Z,66.70
2022-12-04T21:43:08.352Z,66.62
2022-12-04T21:45:58.141Z,66.71
2022-12-04T21:48:41.147Z,66.46
2022-12-04T21:51:48.726Z,66.64
2022-12-04T21:54:28.817Z,66.94
2022-12-04T21:57:12.029Z,66.78
2022-12-04T21:59:55.230Z,67.00
2022-12-04T22:02:39.952Z,66.94
2022-12-04T22:05:22.708Z,66.86
2022-12-04T22:08:07.121Z,66.91
2022-12-04T22:10:51.367Z,66.79
2022-12-04T22:13:34.601Z,66.93
2022-12-04T22:16:19.831Z,67.10
2022-12-04T22:19:02.741Z,67.13
2022-12-04T22:21:45.644Z,67.32
2022-12-04T22:24:28.557Z,67.33
2022-12-04T22:27:14.971Z,67.43
2022-12-04T22:29:57.868Z,67.47
2022-12-04T22:32:40.800Z,67.61
2022-12-04T22:35:23.909Z,67.84
2022-12-04T22:38:06.783Z,67.67
2022-12-04T22:40:49.862Z,67.74
2022-12-04T22:43:40.550Z,67.88
2022-12-04T22:46:23.860Z,67.98
2022-12-04T22:49:07.291Z,68.11
2022-12-04T22:51:50.149Z,68.11
2022-12-04T22:54:33.122Z,68.37
2022-12-04T22:57:16.456Z,68.25
2022-12-04T23:00:00.648Z,68.41
2022-12-04T23:02:43.579Z,68.44
2022-12-04T23:05:26.564Z,68.50
2022-12-04T23:08:10.009Z,68.35
2022-12-04T23:10:52.971Z,68.32
2022-12-04T23:13:36.316Z,68.38
2022-12-04T23:16:21.203Z,68.45
2022-12-04T23:19:05.311Z,68.39
2022-12-04T23:21:53.555Z,68.29
2022-12-04T23:24:41.370Z,68.43
2022-12-04T23:27:24.053Z,69.08
2022-12-04T23:30:08.245Z,68.61
2022-12-04T23:32:52.656Z,68.95
2022-12-04T23:35:35.480Z,68.90
2022-12-04T23:38:18.497Z,69.05
2022-12-04T23:41:02.105Z,69.48
2022-12-04T23:43:45.811Z,69.62
2022-12-04T23:46:32.289Z,69.90
2022-12-04T23:49:16.631Z,69.70
2022-12-04T23:51:59.498Z,70.03
2022-12-04T23:54:42.360Z,70.41
2022-12-04T23:57:25.206Z,70.74
